sensor_id;sensor_type;location;lat;lon;timestamp;P1;durP1;ratioP1;P2;durP2;ratioP2
76423;SDS011;65257;52.104;4.268;2024-03-17T00:01:18;8.40;;;3.90;;
76423;SDS011;65257;52.104;4.268;2024-03-17T00:03:45;12.80;;;5.30;;
76423;SDS011;65257;52.104;4.268;2024-03-17T00:06:13;9.00;;;5.15;;
76423;SDS011;65257;52.104;4.268;2024-03-17T00:08:39;10.40;;;4.32;;
76423;SDS011;65257;52.104;4.268;2024-03-17T00:11:04;8.82;;;4.15;;
76423;SDS011;65257;52.104;4.268;2024-03-17T00:13:30;11.63;;;4.22;;
76423;SDS011;65257;52.104;4.268;2024-03-17T00:15:56;12.52;;;4.68;;
76423;SDS011;65257;52.104;4.268;2024-03-17T00:18:22;10.07;;;5.78;;
76423;SDS011;65257;52.104;4.268;2024-03-17T00:20:48;9.75;;;4.65;;
76423;SDS011;65257;52.104;4.268;2024-03-17T00:23:13;6.90;;;3.55;;
76423;SDS011;65257;52.104;4.268;2024-03-17T00:25:44;9.60;;;4.50;;
76423;SDS011;65257;52.104;4.268;2024-03-17T00:28:10;13.65;;;5.60;;
76423;SDS011;65257;52.104;4.268;2024-03-17T00:30:39;7.45;;;4.05;;
76423;SDS011;65257;52.104;4.268;2024-03-17T00:33:06;10.63;;;4.57;;
76423;SDS011;65257;52.104;4.268;2024-03-17T00:35:32;7.18;;;3.33;;
76423;SDS011;65257;52.104;4.268;2024-03-17T00:38:01;9.20;;;4.50;;
76423;SDS011;65257;52.104;4.268;2024-03-17T00:40:38;6.53;;;4.25;;
76423;SDS011;65257;52.104;4.268;2024-03-17T00:43:07;10.35;;;4.10;;
76423;SDS011;65257;52.104;4.268;2024-03-17T00:45:32;10.25;;;5.18;;
76423;SDS011;65257;52.104;4.268;2024-03-17T00:47:58;6.30;;;3.85;;
76423;SDS011;65257;52.104;4.268;2024-03-17T00:50:23;7.40;;;4.45;;
76423;SDS011;65257;52.104;4.268;2024-03-17T00:52:52;6.78;;;3.38;;
76423;SDS011;65257;52.104;4.268;2024-03-17T00:55:18;8.75;;;4.00;;
76423;SDS011;65257;52.104;4.268;2024-03-17T00:57:43;5.97;;;3.60;;
76423;SDS011;65257;52.104;4.268;2024-03-17T01:02:43;7.47;;;3.50;;
76423;SDS011;65257;52.104;4.268;2024-03-17T01:05:08;10.63;;;4.32;;
76423;SDS011;65257;52.104;4.268;2024-03-17T01:07:37;9.25;;;3.22;;
76423;SDS011;65257;52.104;4.268;2024-03-17T01:10:03;5.90;;;3.60;;
76423;SDS011;65257;52.104;4.268;2024-03-17T01:12:33;11.27;;;4.40;;
76423;SDS011;65257;52.104;4.268;2024-03-17T01:14:59;7.45;;;3.90;;
76423;SDS011;65257;52.104;4.268;2024-03-17T01:17:27;9.25;;;4.65;;
76423;SDS011;65257;52.104;4.268;2024-03-17T01:19:55;8.25;;;4.63;;
76423;SDS011;65257;52.104;4.268;2024-03-17T01:22:21;7.03;;;4.22;;
76423;SDS011;65257;52.104;4.268;2024-03-17T01:24:47;5.65;;;3.33;;
76423;SDS011;65257;52.104;4.268;2024-03-17T01:27:13;8.23;;;4.07;;
76423;SDS011;65257;52.104;4.268;2024-03-17T01:29:47;5.80;;;4.03;;
76423;SDS011;65257;52.104;4.268;2024-03-17T01:32:14;7.85;;;3.95;;
76423;SDS011;65257;52.104;4.268;2024-03-17T01:34:40;7.32;;;3.55;;
76423;SDS011;65257;52.104;4.268;2024-03-17T01:37:09;9.13;;;3.95;;
76423;SDS011;65257;52.104;4.268;2024-03-17T01:39:34;5.10;;;3.80;;
76423;SDS011;65257;52.104;4.268;2024-03-17T01:42:00;7.57;;;4.20;;
76423;SDS011;65257;52.104;4.268;2024-03-17T01:44:28;7.03;;;4.45;;
76423;SDS011;65257;52.104;4.268;2024-03-17T01:46:56;12.65;;;4.03;;
76423;SDS011;65257;52.104;4.268;2024-03-17T01:49:21;11.43;;;4.70;;
76423;SDS011;65257;52.104;4.268;2024-03-17T01:51:49;12.13;;;3.50;;
76423;SDS011;65257;52.104;4.268;2024-03-17T01:54:15;6.65;;;3.65;;
76423;SDS011;65257;52.104;4.268;2024-03-17T01:56:42;6.05;;;3.47;;
76423;SDS011;65257;52.104;4.268;2024-03-17T01:59:10;8.63;;;3.90;;
76423;SDS011;65257;52.104;4.268;2024-03-17T02:01:39;13.77;;;4.82;;
76423;SDS011;65257;52.104;4.268;2024-03-17T02:04:04;6.88;;;3.83;;
76423;SDS011;65257;52.104;4.268;2024-03-17T02:06:30;7.43;;;3.35;;
76423;SDS011;65257;52.104;4.268;2024-03-17T02:08:56;6.05;;;4.15;;
76423;SDS011;65257;52.104;4.268;2024-03-17T02:11:26;6.38;;;3.78;;
76423;SDS011;65257;52.104;4.268;2024-03-17T02:13:53;7.55;;;4.55;;
76423;SDS011;65257;52.104;4.268;2024-03-17T02:16:23;9.55;;;4.85;;
76423;SDS011;65257;52.104;4.268;2024-03-17T02:18:48;5.45;;;2.90;;
76423;SDS011;65257;52.104;4.268;2024-03-17T02:21:14;8.15;;;4.55;;
76423;SDS011;65257;52.104;4.268;2024-03-17T02:23:43;7.88;;;3.53;;
76423;SDS011;65257;52.104;4.268;2024-03-17T02:26:26;6.03;;;4.03;;
76423;SDS011;65257;52.104;4.268;2024-03-17T02:28:52;9.73;;;4.68;;
76423;SDS011;65257;52.104;4.268;2024-03-17T02:31:20;6.28;;;4.10;;
76423;SDS011;65257;52.104;4.268;2024-03-17T02:33:47;7.97;;;4.10;;
76423;SDS011;65257;52.104;4.268;2024-03-17T02:36:12;7.22;;;3.38;;
76423;SDS011;65257;52.104;4.268;2024-03-17T02:38:40;11.27;;;4.82;;
76423;SDS011;65257;52.104;4.268;2024-03-17T02:41:25;7.05;;;4.78;;
76423;SDS011;65257;52.104;4.268;2024-03-17T02:43:54;7.18;;;4.53;;
76423;SDS011;65257;52.104;4.268;2024-03-17T02:46:20;9.93;;;5.03;;
76423;SDS011;65257;52.104;4.268;2024-03-17T02:48:55;8.43;;;5.25;;
76423;SDS011;65257;52.104;4.268;2024-03-17T02:51:21;6.75;;;4.38;;
76423;SDS011;65257;52.104;4.268;2024-03-17T02:53:48;5.85;;;3.22;;
76423;SDS011;65257;52.104;4.268;2024-03-17T02:56:17;8.52;;;4.90;;
76423;SDS011;65257;52.104;4.268;2024-03-17T02:58:44;7.20;;;4.35;;
76423;SDS011;65257;52.104;4.268;2024-03-17T03:01:17;6.68;;;3.55;;
76423;SDS011;65257;52.104;4.268;2024-03-17T03:03:47;9.00;;;4.68;;
76423;SDS011;65257;52.104;4.268;2024-03-17T03:06:13;8.38;;;4.47;;
76423;SDS011;65257;52.104;4.268;2024-03-17T03:08:42;6.85;;;4.70;;
76423;SDS011;65257;52.104;4.268;2024-03-17T03:11:11;9.52;;;5.72;;
76423;SDS011;65257;52.104;4.268;2024-03-17T03:13:38;5.88;;;3.55;;
76423;SDS011;65257;52.104;4.268;2024-03-17T03:16:07;8.75;;;5.38;;
76423;SDS011;65257;52.104;4.268;2024-03-17T03:18:37;5.03;;;3.97;;
76423;SDS011;65257;52.104;4.268;2024-03-17T03:21:06;9.80;;;4.22;;
76423;SDS011;65257;52.104;4.268;2024-03-17T03:23:35;6.75;;;5.07;;
76423;SDS011;65257;52.104;4.268;2024-03-17T03:26:01;6.65;;;4.63;;
76423;SDS011;65257;52.104;4.268;2024-03-17T03:28:31;6.35;;;3.88;;
76423;SDS011;65257;52.104;4.268;2024-03-17T03:30:58;10.43;;;5.32;;
76423;SDS011;65257;52.104;4.268;2024-03-17T03:33:29;7.50;;;3.72;;
76423;SDS011;65257;52.104;4.268;2024-03-17T03:35:55;9.65;;;4.50;;
76423;SDS011;65257;52.104;4.268;2024-03-17T03:38:21;7.20;;;3.88;;
76423;SDS011;65257;52.104;4.268;2024-03-17T03:40:47;6.78;;;3.78;;
76423;SDS011;65257;52.104;4.268;2024-03-17T03:43:14;8.93;;;4.97;;
76423;SDS011;65257;52.104;4.268;2024-03-17T03:45:40;10.18;;;5.28;;
76423;SDS011;65257;52.104;4.268;2024-03-17T03:48:06;7.82;;;4.80;;
76423;SDS011;65257;52.104;4.268;2024-03-17T03:50:44;11.00;;;5.55;;
76423;SDS011;65257;52.104;4.268;2024-03-17T03:53:10;9.20;;;5.22;;
76423;SDS011;65257;52.104;4.268;2024-03-17T03:55:39;9.70;;;5.25;;
76423;SDS011;65257;52.104;4.268;2024-03-17T03:58:07;6.85;;;4.22;;
76423;SDS011;65257;52.104;4.268;2024-03-17T04:00:33;8.85;;;4.78;;
76423;SDS011;65257;52.104;4.268;2024-03-17T04:02:59;7.63;;;5.18;;
76423;SDS011;65257;52.104;4.268;2024-03-17T04:05:26;9.48;;;5.65;;
76423;SDS011;65257;52.104;4.268;2024-03-17T04:07:53;7.75;;;5.35;;
76423;SDS011;65257;52.104;4.268;2024-03-17T04:10:18;7.28;;;5.05;;
76423;SDS011;65257;52.104;4.268;2024-03-17T04:12:45;8.48;;;5.45;;
76423;SDS011;65257;52.104;4.268;2024-03-17T04:15:17;6.40;;;4.90;;
76423;SDS011;65257;52.104;4.268;2024-03-17T04:17:49;8.30;;;5.85;;
76423;SDS011;65257;52.104;4.268;2024-03-17T04:20:18;7.35;;;4.85;;
76423;SDS011;65257;52.104;4.268;2024-03-17T04:22:43;9.90;;;5.55;;
76423;SDS011;65257;52.104;4.268;2024-03-17T04:25:09;8.85;;;5.13;;
76423;SDS011;65257;52.104;4.268;2024-03-17T04:27:43;8.88;;;5.10;;
76423;SDS011;65257;52.104;4.268;2024-03-17T04:30:11;7.28;;;4.95;;
76423;SDS011;65257;52.104;4.268;2024-03-17T04:32:37;9.70;;;5.78;;
76423;SDS011;65257;52.104;4.268;2024-03-17T04:35:02;10.07;;;5.20;;
76423;SDS011;65257;52.104;4.268;2024-03-17T04:37:28;9.85;;;5.47;;
76423;SDS011;65257;52.104;4.268;2024-03-17T04:40:03;6.30;;;4.55;;
76423;SDS011;65257;52.104;4.268;2024-03-17T04:42:32;9.27;;;5.50;;
76423;SDS011;65257;52.104;4.268;2024-03-17T04:44:58;8.77;;;5.13;;
76423;SDS011;65257;52.104;4.268;2024-03-17T04:47:23;8.45;;;5.70;;
76423;SDS011;65257;52.104;4.268;2024-03-17T04:49:52;10.38;;;5.40;;
76423;SDS011;65257;52.104;4.268;2024-03-17T04:52:20;9.93;;;3.83;;
76423;SDS011;65257;52.104;4.268;2024-03-17T04:55:00;9.10;;;5.85;;
76423;SDS011;65257;52.104;4.268;2024-03-17T04:57:26;12.27;;;5.63;;
76423;SDS011;65257;52.104;4.268;2024-03-17T04:59:51;14.30;;;6.95;;
76423;SDS011;65257;52.104;4.268;2024-03-17T05:02:20;8.13;;;5.07;;
76423;SDS011;65257;52.104;4.268;2024-03-17T05:04:45;8.95;;;4.72;;
76423;SDS011;65257;52.104;4.268;2024-03-17T05:07:10;11.38;;;6.63;;
76423;SDS011;65257;52.104;4.268;2024-03-17T05:09:36;9.77;;;5.72;;
76423;SDS011;65257;52.104;4.268;2024-03-17T05:12:01;12.60;;;6.78;;
76423;SDS011;65257;52.104;4.268;2024-03-17T05:14:30;9.75;;;6.10;;
76423;SDS011;65257;52.104;4.268;2024-03-17T05:16:55;9.40;;;5.50;;
76423;SDS011;65257;52.104;4.268;2024-03-17T05:19:21;8.63;;;4.60;;
76423;SDS011;65257;52.104;4.268;2024-03-17T05:21:49;9.27;;;5.78;;
76423;SDS011;65257;52.104;4.268;2024-03-17T05:24:15;9.27;;;4.68;;
76423;SDS011;65257;52.104;4.268;2024-03-17T05:26:41;8.60;;;5.55;;
76423;SDS011;65257;52.104;4.268;2024-03-17T05:29:10;7.78;;;4.03;;
76423;SDS011;65257;52.104;4.268;2024-03-17T05:31:36;7.55;;;5.53;;
76423;SDS011;65257;52.104;4.268;2024-03-17T05:36:32;11.23;;;5.80;;
76423;SDS011;65257;52.104;4.268;2024-03-17T05:38:59;10.27;;;6.28;;
76423;SDS011;65257;52.104;4.268;2024-03-17T05:41:24;10.18;;;5.38;;
76423;SDS011;65257;52.104;4.268;2024-03-17T05:43:51;8.23;;;4.78;;
76423;SDS011;65257;52.104;4.268;2024-03-17T05:46:16;8.95;;;3.97;;
76423;SDS011;65257;52.104;4.268;2024-03-17T05:48:48;10.23;;;6.63;;
76423;SDS011;65257;52.104;4.268;2024-03-17T05:51:14;11.00;;;5.63;;
76423;SDS011;65257;52.104;4.268;2024-03-17T05:53:42;10.13;;;7.28;;
76423;SDS011;65257;52.104;4.268;2024-03-17T05:56:11;7.97;;;4.82;;
76423;SDS011;65257;52.104;4.268;2024-03-17T05:58:43;10.82;;;7.25;;
76423;SDS011;65257;52.104;4.268;2024-03-17T06:01:09;9.07;;;6.00;;
76423;SDS011;65257;52.104;4.268;2024-03-17T06:03:36;10.05;;;6.72;;
76423;SDS011;65257;52.104;4.268;2024-03-17T06:06:02;8.65;;;6.22;;
76423;SDS011;65257;52.104;4.268;2024-03-17T06:08:28;9.93;;;6.75;;
76423;SDS011;65257;52.104;4.268;2024-03-17T06:10:58;10.50;;;7.72;;
76423;SDS011;65257;52.104;4.268;2024-03-17T06:13:28;11.43;;;6.57;;
76423;SDS011;65257;52.104;4.268;2024-03-17T06:16:03;8.98;;;5.32;;
76423;SDS011;65257;52.104;4.268;2024-03-17T06:18:33;11.90;;;7.43;;
76423;SDS011;65257;52.104;4.268;2024-03-17T06:21:04;9.18;;;5.50;;
76423;SDS011;65257;52.104;4.268;2024-03-17T06:23:33;10.00;;;6.57;;
76423;SDS011;65257;52.104;4.268;2024-03-17T06:26:01;10.75;;;6.40;;
76423;SDS011;65257;52.104;4.268;2024-03-17T06:28:30;8.43;;;5.82;;
76423;SDS011;65257;52.104;4.268;2024-03-17T06:30:59;11.65;;;7.88;;
76423;SDS011;65257;52.104;4.268;2024-03-17T06:33:26;12.30;;;6.57;;
76423;SDS011;65257;52.104;4.268;2024-03-17T06:35:56;9.13;;;6.35;;
76423;SDS011;65257;52.104;4.268;2024-03-17T06:38:21;11.88;;;7.65;;
76423;SDS011;65257;52.104;4.268;2024-03-17T06:40:48;11.15;;;7.50;;
76423;SDS011;65257;52.104;4.268;2024-03-17T06:43:16;9.70;;;7.00;;
76423;SDS011;65257;52.104;4.268;2024-03-17T06:45:42;12.43;;;7.25;;
76423;SDS011;65257;52.104;4.268;2024-03-17T06:48:07;11.13;;;5.68;;
76423;SDS011;65257;52.104;4.268;2024-03-17T06:50:33;10.10;;;5.97;;
76423;SDS011;65257;52.104;4.268;2024-03-17T06:53:01;19.02;;;7.47;;
76423;SDS011;65257;52.104;4.268;2024-03-17T06:55:27;8.25;;;4.88;;
76423;SDS011;65257;52.104;4.268;2024-03-17T06:57:53;12.80;;;7.32;;
76423;SDS011;65257;52.104;4.268;2024-03-17T07:00:23;11.27;;;6.95;;
76423;SDS011;65257;52.104;4.268;2024-03-17T07:02:50;12.93;;;7.15;;
76423;SDS011;65257;52.104;4.268;2024-03-17T07:05:16;8.57;;;5.47;;
76423;SDS011;65257;52.104;4.268;2024-03-17T07:07:41;11.43;;;6.20;;
76423;SDS011;65257;52.104;4.268;2024-03-17T07:10:07;11.45;;;7.68;;
76423;SDS011;65257;52.104;4.268;2024-03-17T07:12:33;8.27;;;5.72;;
76423;SDS011;65257;52.104;4.268;2024-03-17T07:14:59;9.98;;;6.75;;
76423;SDS011;65257;52.104;4.268;2024-03-17T07:17:38;13.68;;;6.97;;
76423;SDS011;65257;52.104;4.268;2024-03-17T07:20:03;9.98;;;6.32;;
76423;SDS011;65257;52.104;4.268;2024-03-17T07:22:38;9.75;;;7.07;;
76423;SDS011;65257;52.104;4.268;2024-03-17T07:25:09;11.45;;;7.30;;
76423;SDS011;65257;52.104;4.268;2024-03-17T07:27:35;9.13;;;6.45;;
76423;SDS011;65257;52.104;4.268;2024-03-17T07:30:03;11.85;;;7.50;;
76423;SDS011;65257;52.104;4.268;2024-03-17T07:32:34;8.95;;;6.45;;
76423;SDS011;65257;52.104;4.268;2024-03-17T07:35:00;11.18;;;7.72;;
76423;SDS011;65257;52.104;4.268;2024-03-17T07:37:25;8.32;;;5.78;;
76423;SDS011;65257;52.104;4.268;2024-03-17T07:39:53;10.13;;;6.72;;
76423;SDS011;65257;52.104;4.268;2024-03-17T07:42:22;9.85;;;6.95;;
76423;SDS011;65257;52.104;4.268;2024-03-17T07:44:51;11.18;;;7.35;;
76423;SDS011;65257;52.104;4.268;2024-03-17T07:47:16;13.27;;;7.65;;
76423;SDS011;65257;52.104;4.268;2024-03-17T07:49:41;8.38;;;6.18;;
76423;SDS011;65257;52.104;4.268;2024-03-17T07:52:11;11.93;;;6.13;;
76423;SDS011;65257;52.104;4.268;2024-03-17T07:54:37;13.90;;;6.88;;
76423;SDS011;65257;52.104;4.268;2024-03-17T07:57:02;11.63;;;8.05;;
76423;SDS011;65257;52.104;4.268;2024-03-17T07:59:29;10.68;;;6.32;;
76423;SDS011;65257;52.104;4.268;2024-03-17T08:01:57;9.00;;;4.93;;
76423;SDS011;65257;52.104;4.268;2024-03-17T08:04:31;8.85;;;6.68;;
76423;SDS011;65257;52.104;4.268;2024-03-17T08:06:57;11.20;;;7.00;;
76423;SDS011;65257;52.104;4.268;2024-03-17T08:09:22;10.77;;;6.28;;
76423;SDS011;65257;52.104;4.268;2024-03-17T08:11:53;12.77;;;6.78;;
76423;SDS011;65257;52.104;4.268;2024-03-17T08:14:19;12.35;;;7.32;;
76423;SDS011;65257;52.104;4.268;2024-03-17T08:16:45;11.75;;;6.88;;
76423;SDS011;65257;52.104;4.268;2024-03-17T08:19:10;10.63;;;6.80;;
76423;SDS011;65257;52.104;4.268;2024-03-17T08:21:35;12.77;;;6.75;;
76423;SDS011;65257;52.104;4.268;2024-03-17T08:24:01;10.07;;;7.30;;
76423;SDS011;65257;52.104;4.268;2024-03-17T08:26:26;9.02;;;6.00;;
76423;SDS011;65257;52.104;4.268;2024-03-17T08:28:52;9.10;;;5.28;;
76423;SDS011;65257;52.104;4.268;2024-03-17T08:31:17;9.55;;;6.78;;
76423;SDS011;65257;52.104;4.268;2024-03-17T08:33:46;15.10;;;7.93;;
76423;SDS011;65257;52.104;4.268;2024-03-17T08:36:12;12.65;;;7.32;;
76423;SDS011;65257;52.104;4.268;2024-03-17T08:38:41;11.38;;;7.00;;
76423;SDS011;65257;52.104;4.268;2024-03-17T08:41:07;9.27;;;6.45;;
76423;SDS011;65257;52.104;4.268;2024-03-17T08:43:36;11.45;;;6.68;;
76423;SDS011;65257;52.104;4.268;2024-03-17T08:46:06;11.27;;;7.05;;
76423;SDS011;65257;52.104;4.268;2024-03-17T08:48:34;10.05;;;6.93;;
76423;SDS011;65257;52.104;4.268;2024-03-17T08:51:03;11.77;;;6.93;;
76423;SDS011;65257;52.104;4.268;2024-03-17T08:53:33;10.80;;;5.82;;
76423;SDS011;65257;52.104;4.268;2024-03-17T08:55:59;9.75;;;6.38;;
76423;SDS011;65257;52.104;4.268;2024-03-17T08:58:27;8.90;;;6.50;;
76423;SDS011;65257;52.104;4.268;2024-03-17T09:00:52;12.43;;;7.18;;
76423;SDS011;65257;52.104;4.268;2024-03-17T09:03:21;9.35;;;6.70;;
76423;SDS011;65257;52.104;4.268;2024-03-17T09:05:56;8.57;;;5.70;;
76423;SDS011;65257;52.104;4.268;2024-03-17T09:08:22;10.32;;;7.28;;
76423;SDS011;65257;52.104;4.268;2024-03-17T09:10:49;8.68;;;5.90;;
76423;SDS011;65257;52.104;4.268;2024-03-17T09:13:17;12.07;;;6.00;;
76423;SDS011;65257;52.104;4.268;2024-03-17T09:15:56;10.63;;;7.10;;
76423;SDS011;65257;52.104;4.268;2024-03-17T09:18:24;10.27;;;6.35;;
76423;SDS011;65257;52.104;4.268;2024-03-17T09:21:00;10.57;;;6.55;;
76423;SDS011;65257;52.104;4.268;2024-03-17T09:23:32;11.02;;;7.35;;
76423;SDS011;65257;52.104;4.268;2024-03-17T09:26:05;15.57;;;7.72;;
76423;SDS011;65257;52.104;4.268;2024-03-17T09:28:41;8.88;;;6.53;;
76423;SDS011;65257;52.104;4.268;2024-03-17T09:31:06;8.38;;;5.40;;
76423;SDS011;65257;52.104;4.268;2024-03-17T09:33:32;12.57;;;6.75;;
76423;SDS011;65257;52.104;4.268;2024-03-17T09:36:05;10.77;;;6.80;;
76423;SDS011;65257;52.104;4.268;2024-03-17T09:38:32;8.73;;;5.97;;
76423;SDS011;65257;52.104;4.268;2024-03-17T09:40:59;13.98;;;7.57;;
76423;SDS011;65257;52.104;4.268;2024-03-17T09:43:36;10.27;;;6.07;;
76423;SDS011;65257;52.104;4.268;2024-03-17T09:46:16;9.88;;;7.00;;
76423;SDS011;65257;52.104;4.268;2024-03-17T09:48:46;10.15;;;6.35;;
76423;SDS011;65257;52.104;4.268;2024-03-17T09:51:21;8.73;;;5.68;;
76423;SDS011;65257;52.104;4.268;2024-03-17T09:53:48;9.10;;;5.65;;
76423;SDS011;65257;52.104;4.268;2024-03-17T09:56:14;10.77;;;5.70;;
76423;SDS011;65257;52.104;4.268;2024-03-17T09:58:44;16.10;;;6.88;;
76423;SDS011;65257;52.104;4.268;2024-03-17T10:01:19;9.63;;;6.68;;
76423;SDS011;65257;52.104;4.268;2024-03-17T10:06:24;10.32;;;7.13;;
76423;SDS011;65257;52.104;4.268;2024-03-17T10:08:56;9.32;;;6.45;;
76423;SDS011;65257;52.104;4.268;2024-03-17T10:11:33;11.43;;;6.63;;
76423;SDS011;65257;52.104;4.268;2024-03-17T10:14:19;14.35;;;7.25;;
76423;SDS011;65257;52.104;4.268;2024-03-17T10:16:45;8.50;;;6.40;;
76423;SDS011;65257;52.104;4.268;2024-03-17T10:19:14;8.73;;;6.53;;
76423;SDS011;65257;52.104;4.268;2024-03-17T10:21:46;10.77;;;6.43;;
76423;SDS011;65257;52.104;4.268;2024-03-17T10:24:23;8.85;;;5.90;;
76423;SDS011;65257;52.104;4.268;2024-03-17T10:29:33;7.13;;;5.35;;
76423;SDS011;65257;52.104;4.268;2024-03-17T10:32:13;11.45;;;6.30;;
76423;SDS011;65257;52.104;4.268;2024-03-17T10:34:41;12.10;;;7.07;;
76423;SDS011;65257;52.104;4.268;2024-03-17T10:37:10;5.45;;;3.88;;
76423;SDS011;65257;52.104;4.268;2024-03-17T10:39:45;11.23;;;5.90;;
76423;SDS011;65257;52.104;4.268;2024-03-17T10:42:27;11.90;;;6.85;;
76423;SDS011;65257;52.104;4.268;2024-03-17T10:44:58;10.25;;;6.50;;
76423;SDS011;65257;52.104;4.268;2024-03-17T10:47:27;8.80;;;5.03;;
76423;SDS011;65257;52.104;4.268;2024-03-17T10:49:54;9.05;;;4.80;;
76423;SDS011;65257;52.104;4.268;2024-03-17T10:52:23;9.77;;;5.38;;
76423;SDS011;65257;52.104;4.268;2024-03-17T10:54:53;12.35;;;5.65;;
76423;SDS011;65257;52.104;4.268;2024-03-17T11:00:03;11.15;;;4.97;;
76423;SDS011;65257;52.104;4.268;2024-03-17T11:02:37;8.55;;;5.00;;
76423;SDS011;65257;52.104;4.268;2024-03-17T11:05:17;10.20;;;5.50;;
76423;SDS011;65257;52.104;4.268;2024-03-17T11:07:45;11.68;;;5.22;;
76423;SDS011;65257;52.104;4.268;2024-03-17T11:10:20;9.57;;;6.05;;
76423;SDS011;65257;52.104;4.268;2024-03-17T11:12:50;12.32;;;6.60;;
76423;SDS011;65257;52.104;4.268;2024-03-17T11:17:55;9.90;;;6.45;;
76423;SDS011;65257;52.104;4.268;2024-03-17T11:21:00;11.02;;;5.15;;
76423;SDS011;65257;52.104;4.268;2024-03-17T11:23:32;12.07;;;5.43;;
76423;SDS011;65257;52.104;4.268;2024-03-17T11:26:00;8.18;;;4.90;;
76423;SDS011;65257;52.104;4.268;2024-03-17T11:34:06;9.60;;;5.35;;
76423;SDS011;65257;52.104;4.268;2024-03-17T11:36:50;11.13;;;5.68;;
76423;SDS011;65257;52.104;4.268;2024-03-17T11:39:16;11.88;;;6.82;;
76423;SDS011;65257;52.104;4.268;2024-03-17T11:41:52;9.32;;;5.07;;
76423;SDS011;65257;52.104;4.268;2024-03-17T11:46:44;8.90;;;5.13;;
76423;SDS011;65257;52.104;4.268;2024-03-17T11:51:55;8.25;;;5.18;;
76423;SDS011;65257;52.104;4.268;2024-03-17T11:54:32;11.70;;;6.85;;
76423;SDS011;65257;52.104;4.268;2024-03-17T11:57:06;8.85;;;5.20;;
76423;SDS011;65257;52.104;4.268;2024-03-17T11:59:40;13.05;;;6.35;;
76423;SDS011;65257;52.104;4.268;2024-03-17T12:02:19;8.63;;;5.32;;
76423;SDS011;65257;52.104;4.268;2024-03-17T12:04:53;11.18;;;6.55;;
76423;SDS011;65257;52.104;4.268;2024-03-17T12:07:22;11.27;;;6.07;;
76423;SDS011;65257;52.104;4.268;2024-03-17T12:09:51;12.05;;;6.40;;
76423;SDS011;65257;52.104;4.268;2024-03-17T12:12:26;12.57;;;5.03;;
76423;SDS011;65257;52.104;4.268;2024-03-17T12:15:16;9.55;;;5.30;;
76423;SDS011;65257;52.104;4.268;2024-03-17T12:17:45;10.95;;;5.55;;
76423;SDS011;65257;52.104;4.268;2024-03-17T12:20:17;7.82;;;4.20;;
76423;SDS011;65257;52.104;4.268;2024-03-17T12:22:52;11.90;;;5.50;;
76423;SDS011;65257;52.104;4.268;2024-03-17T12:25:20;8.45;;;5.53;;
76423;SDS011;65257;52.104;4.268;2024-03-17T12:27:48;9.93;;;5.70;;
76423;SDS011;65257;52.104;4.268;2024-03-17T12:30:14;14.88;;;6.65;;
76423;SDS011;65257;52.104;4.268;2024-03-17T12:32:40;12.05;;;6.18;;
76423;SDS011;65257;52.104;4.268;2024-03-17T12:35:18;12.05;;;5.97;;
76423;SDS011;65257;52.104;4.268;2024-03-17T12:37:45;13.23;;;5.85;;
76423;SDS011;65257;52.104;4.268;2024-03-17T12:40:17;14.88;;;5.18;;
76423;SDS011;65257;52.104;4.268;2024-03-17T12:42:50;11.50;;;5.63;;
76423;SDS011;65257;52.104;4.268;2024-03-17T12:45:24;11.13;;;6.55;;
76423;SDS011;65257;52.104;4.268;2024-03-17T12:47:50;8.15;;;4.82;;
76423;SDS011;65257;52.104;4.268;2024-03-17T12:50:18;9.25;;;5.63;;
76423;SDS011;65257;52.104;4.268;2024-03-17T12:52:54;10.65;;;6.32;;
76423;SDS011;65257;52.104;4.268;2024-03-17T12:55:23;10.65;;;5.63;;
76423;SDS011;65257;52.104;4.268;2024-03-17T12:58:11;12.30;;;5.55;;
76423;SDS011;65257;52.104;4.268;2024-03-17T13:01:01;9.52;;;4.82;;
76423;SDS011;65257;52.104;4.268;2024-03-17T13:03:30;8.85;;;5.55;;
76423;SDS011;65257;52.104;4.268;2024-03-17T13:06:01;11.75;;;5.65;;
76423;SDS011;65257;52.104;4.268;2024-03-17T13:08:31;9.65;;;5.78;;
76423;SDS011;65257;52.104;4.268;2024-03-17T13:11:00;11.45;;;6.28;;
76423;SDS011;65257;52.104;4.268;2024-03-17T13:13:35;12.13;;;5.63;;
76423;SDS011;65257;52.104;4.268;2024-03-17T13:16:00;8.75;;;4.72;;
76423;SDS011;65257;52.104;4.268;2024-03-17T13:18:25;12.05;;;4.60;;
76423;SDS011;65257;52.104;4.268;2024-03-17T13:20:51;10.15;;;5.10;;
76423;SDS011;65257;52.104;4.268;2024-03-17T13:23:18;10.05;;;5.55;;
76423;SDS011;65257;52.104;4.268;2024-03-17T13:25:47;10.18;;;5.35;;
76423;SDS011;65257;52.104;4.268;2024-03-17T13:28:19;11.27;;;6.13;;
76423;SDS011;65257;52.104;4.268;2024-03-17T13:30:44;9.32;;;4.80;;
76423;SDS011;65257;52.104;4.268;2024-03-17T13:33:22;10.32;;;6.47;;
76423;SDS011;65257;52.104;4.268;2024-03-17T13:35:49;10.48;;;4.53;;
76423;SDS011;65257;52.104;4.268;2024-03-17T13:38:14;11.60;;;5.65;;
76423;SDS011;65257;52.104;4.268;2024-03-17T13:40:40;11.98;;;6.25;;
76423;SDS011;65257;52.104;4.268;2024-03-17T13:43:07;11.10;;;5.50;;
76423;SDS011;65257;52.104;4.268;2024-03-17T13:45:37;10.57;;;5.13;;
76423;SDS011;65257;52.104;4.268;2024-03-17T13:48:05;11.45;;;5.90;;
76423;SDS011;65257;52.104;4.268;2024-03-17T13:50:35;11.25;;;6.03;;
76423;SDS011;65257;52.104;4.268;2024-03-17T13:53:03;10.20;;;5.38;;
76423;SDS011;65257;52.104;4.268;2024-03-17T13:55:28;12.75;;;5.13;;
76423;SDS011;65257;52.104;4.268;2024-03-17T13:57:55;12.63;;;5.32;;
76423;SDS011;65257;52.104;4.268;2024-03-17T14:00:30;13.70;;;5.70;;
76423;SDS011;65257;52.104;4.268;2024-03-17T14:02:59;9.85;;;4.80;;
76423;SDS011;65257;52.104;4.268;2024-03-17T14:05:25;10.45;;;5.63;;
76423;SDS011;65257;52.104;4.268;2024-03-17T14:08:06;8.30;;;4.15;;
76423;SDS011;65257;52.104;4.268;2024-03-17T14:10:38;11.82;;;5.72;;
76423;SDS011;65257;52.104;4.268;2024-03-17T14:13:04;11.20;;;5.95;;
76423;SDS011;65257;52.104;4.268;2024-03-17T14:15:30;14.05;;;5.95;;
76423;SDS011;65257;52.104;4.268;2024-03-17T14:17:55;9.32;;;4.75;;
76423;SDS011;65257;52.104;4.268;2024-03-17T14:20:24;12.30;;;6.00;;
76423;SDS011;65257;52.104;4.268;2024-03-17T14:22:49;12.23;;;6.32;;
76423;SDS011;65257;52.104;4.268;2024-03-17T14:25:19;9.30;;;5.28;;
76423;SDS011;65257;52.104;4.268;2024-03-17T14:27:46;10.00;;;5.60;;
76423;SDS011;65257;52.104;4.268;2024-03-17T14:30:15;8.68;;;5.53;;
76423;SDS011;65257;52.104;4.268;2024-03-17T14:32:42;9.73;;;5.78;;
76423;SDS011;65257;52.104;4.268;2024-03-17T14:35:10;8.57;;;4.65;;
76423;SDS011;65257;52.104;4.268;2024-03-17T14:37:39;12.65;;;5.38;;
76423;SDS011;65257;52.104;4.268;2024-03-17T14:40:08;12.73;;;5.45;;
76423;SDS011;65257;52.104;4.268;2024-03-17T14:42:40;13.98;;;5.13;;
76423;SDS011;65257;52.104;4.268;2024-03-17T14:45:13;13.70;;;5.28;;
76423;SDS011;65257;52.104;4.268;2024-03-17T14:47:38;8.02;;;4.68;;
76423;SDS011;65257;52.104;4.268;2024-03-17T14:50:04;11.65;;;5.20;;
76423;SDS011;65257;52.104;4.268;2024-03-17T14:52:30;12.07;;;7.05;;
76423;SDS011;65257;52.104;4.268;2024-03-17T14:54:56;14.68;;;4.90;;
76423;SDS011;65257;52.104;4.268;2024-03-17T14:57:25;10.25;;;4.65;;
76423;SDS011;65257;52.104;4.268;2024-03-17T14:59:56;13.60;;;7.03;;
76423;SDS011;65257;52.104;4.268;2024-03-17T15:02:23;12.07;;;6.82;;
76423;SDS011;65257;52.104;4.268;2024-03-17T15:04:50;11.55;;;6.10;;
76423;SDS011;65257;52.104;4.268;2024-03-17T15:07:19;11.57;;;6.03;;
76423;SDS011;65257;52.104;4.268;2024-03-17T15:09:45;12.55;;;6.00;;
76423;SDS011;65257;52.104;4.268;2024-03-17T15:12:11;10.77;;;6.57;;
76423;SDS011;65257;52.104;4.268;2024-03-17T15:14:36;11.50;;;6.78;;
76423;SDS011;65257;52.104;4.268;2024-03-17T15:17:05;9.77;;;6.28;;